createdAt,value
2023-02-18T00:01:43.247Z,59.50
2023-02-18T00:04:24.441Z,62.55
2023-02-18T00:06:52.513Z,65.28
2023-02-18T00:09:20.766Z,66.97
2023-02-18T00:11:48.220Z,66.12
2023-02-18T00:14:17.642Z,65.40
2023-02-18T00:16:46.623Z,67.25
2023-02-18T00:19:18.033Z,66.22
2023-02-18T00:21:47.126Z,67.47
2023-02-18T00:24:17.036Z,67.35
2023-02-18T00:26:53.750Z,67.80
2023-02-18T00:29:21.870Z,68.33
2023-02-18T00:31:49.479Z,69.15
2023-02-18T00:34:17.041Z,70.50
2023-02-18T00:36:45.010Z,67.85
2023-02-18T00:39:12.696Z,71.85
2023-02-18T00:41:42.263Z,67.27
2023-02-18T00:44:11.278Z,74.72
2023-02-18T00:46:39.738Z,70.83
2023-02-18T00:49:08.700Z,66.75
2023-02-18T00:51:38.872Z,63.45
2023-02-18T00:54:07.247Z,63.23
2023-02-18T00:56:35.166Z,63.75
2023-02-18T00:59:03.756Z,62.67
2023-02-18T01:01:31.596Z,64.15
2023-02-18T01:03:59.381Z,65.92
2023-02-18T01:06:30.185Z,70.10
2023-02-18T01:08:58.102Z,67.70
2023-02-18T01:11:25.610Z,72.35
2023-02-18T01:13:53.761Z,69.77
2023-02-18T01:16:22.109Z,71.92
2023-02-18T01:18:50.005Z,71.85
2023-02-18T01:21:18.189Z,72.67
2023-02-18T01:23:45.989Z,75.55
2023-02-18T01:26:15.601Z,80.00
2023-02-18T01:28:43.172Z,77.45
2023-02-18T01:31:13.802Z,76.22
2023-02-18T01:33:42.830Z,77.03
2023-02-18T01:36:11.920Z,78.57
2023-02-18T01:38:40.240Z,76.00
2023-02-18T01:41:08.566Z,73.92
2023-02-18T01:43:37.399Z,76.82
2023-02-18T01:46:20.674Z,71.40
2023-02-18T01:48:57.670Z,70.72
2023-02-18T01:51:32.726Z,72.92
2023-02-18T01:54:19.757Z,69.42
2023-02-18T01:56:54.596Z,78.17
2023-02-18T01:59:31.861Z,79.90
2023-02-18T02:02:00.471Z,74.90
2023-02-18T02:04:30.261Z,72.37
2023-02-18T02:06:58.533Z,71.87
2023-02-18T02:09:30.626Z,71.05
2023-02-18T02:12:05.150Z,68.57
2023-02-18T02:15:08.380Z,64.87
2023-02-18T02:18:07.621Z,63.15
2023-02-18T02:21:15.382Z,60.23
2023-02-18T02:23:58.690Z,61.20
2023-02-18T02:26:56.313Z,59.75
2023-02-18T02:29:47.569Z,60.55
2023-02-18T02:32:43.452Z,59.88
2023-02-18T02:35:35.177Z,60.78
2023-02-18T02:38:09.743Z,61.55
2023-02-18T02:43:34.919Z,60.67
2023-02-18T02:46:18.802Z,63.68
2023-02-18T02:48:52.990Z,63.10
2023-02-18T02:51:42.698Z,63.38
2023-02-18T02:54:22.603Z,62.15
2023-02-18T02:56:51.442Z,65.72
2023-02-18T02:59:25.854Z,69.30
2023-02-18T03:02:01.502Z,67.62
2023-02-18T03:04:56.814Z,65.55
2023-02-18T03:07:45.476Z,67.72
2023-02-18T03:10:18.715Z,65.97
2023-02-18T03:13:06.652Z,65.35
2023-02-18T03:15:57.505Z,69.10
2023-02-18T03:18:41.438Z,68.25
2023-02-18T03:21:21.608Z,66.90
2023-02-18T03:23:56.345Z,65.52
2023-02-18T03:26:25.989Z,68.55
2023-02-18T03:28:56.849Z,66.45
2023-02-18T03:31:41.790Z,63.05
2023-02-18T03:34:14.117Z,61.35
2023-02-18T03:36:43.988Z,62.55
2023-02-18T03:39:19.384Z,60.05
2023-02-18T03:41:48.159Z,61.85
2023-02-18T03:44:16.487Z,62.00
2023-02-18T03:46:45.791Z,62.13
2023-02-18T03:49:15.519Z,59.48
2023-02-18T03:51:44.622Z,60.33
2023-02-18T03:54:14.252Z,61.53
2023-02-18T03:56:42.943Z,64.25
2023-02-18T03:59:10.746Z,68.62
2023-02-18T04:01:58.310Z,68.72
2023-02-18T04:04:26.164Z,68.05
2023-02-18T04:06:54.185Z,70.30
2023-02-18T04:09:22.049Z,71.35
2023-02-18T04:11:50.307Z,68.55
2023-02-18T04:14:18.844Z,69.30
2023-02-18T04:17:00.155Z,73.07
2023-02-18T04:19:28.448Z,69.65
2023-02-18T04:21:56.374Z,70.12
2023-02-18T04:24:24.386Z,69.27
2023-02-18T04:26:52.468Z,69.40
2023-02-18T04:29:20.947Z,73.78
2023-02-18T04:31:48.821Z,73.40
2023-02-18T04:34:17.247Z,75.20
2023-02-18T04:36:44.638Z,73.75
2023-02-18T04:39:12.512Z,75.85
2023-02-18T04:41:40.579Z,73.28
2023-02-18T04:44:08.605Z,70.72
2023-02-18T04:46:57.571Z,74.12
2023-02-18T04:49:25.831Z,72.35
2023-02-18T04:51:53.552Z,72.87
2023-02-18T04:54:24.202Z,72.50
2023-02-18T04:56:52.277Z,71.65
2023-02-18T04:59:20.327Z,68.87
2023-02-18T05:01:48.205Z,72.58
2023-02-18T05:04:17.884Z,71.77
2023-02-18T05:06:46.119Z,67.65
2023-02-18T05:09:14.508Z,69.03
2023-02-18T05:11:43.757Z,67.55
2023-02-18T05:14:31.803Z,65.97
2023-02-18T05:17:05.614Z,70.10
2023-02-18T05:19:33.421Z,69.67
2023-02-18T05:22:01.552Z,68.65
2023-02-18T05:27:16.013Z,66.92
2023-02-18T05:29:44.193Z,70.52
2023-02-18T05:32:11.959Z,70.30
2023-02-18T05:34:39.700Z,68.85
2023-02-18T05:37:07.257Z,67.12
2023-02-18T05:39:35.301Z,69.32
2023-02-18T05:42:03.160Z,70.30
2023-02-18T05:44:30.996Z,67.15
2023-02-18T05:47:05.402Z,66.45
2023-02-18T05:49:34.818Z,66.30
2023-02-18T05:52:03.643Z,67.92
2023-02-18T05:54:31.863Z,66.45
2023-02-18T05:56:59.820Z,66.62
2023-02-18T05:59:28.012Z,65.47
2023-02-18T06:01:56.018Z,64.00
2023-02-18T06:04:24.461Z,66.87
2023-02-18T06:06:52.689Z,67.00
2023-02-18T06:09:22.405Z,69.00
2023-02-18T06:11:50.288Z,66.82
2023-02-18T06:14:19.006Z,67.35
2023-02-18T06:16:48.349Z,66.45
2023-02-18T06:19:29.697Z,68.50
2023-02-18T06:21:57.276Z,66.25
2023-02-18T06:24:25.259Z,66.45
2023-02-18T06:26:53.337Z,66.72
2023-02-18T06:29:21.714Z,66.75
2023-02-18T06:31:49.835Z,64.87
2023-02-18T06:34:18.324Z,64.67
2023-02-18T06:36:46.289Z,63.70
2023-02-18T06:39:13.857Z,62.95
2023-02-18T06:41:41.871Z,65.90
2023-02-18T06:44:10.293Z,66.12
2023-02-18T06:46:38.541Z,63.83
2023-02-18T06:49:06.337Z,62.15
2023-02-18T06:51:34.301Z,63.45
2023-02-18T06:54:01.841Z,63.42
2023-02-18T06:56:31.137Z,63.17
2023-02-18T06:58:59.232Z,61.40
2023-02-18T07:01:26.893Z,61.08
2023-02-18T07:04:14.433Z,60.38
2023-02-18T07:06:42.394Z,60.05
2023-02-18T07:09:10.597Z,57.38
2023-02-18T07:11:38.363Z,60.28
2023-02-18T07:14:08.275Z,60.45
2023-02-18T07:16:36.144Z,60.28
2023-02-18T07:19:03.835Z,62.10
2023-02-18T07:21:32.255Z,61.98
2023-02-18T07:24:00.108Z,60.67
2023-02-18T07:26:28.502Z,58.68
2023-02-18T07:28:56.012Z,57.25
2023-02-18T07:31:24.186Z,56.18
2023-02-18T07:33:51.791Z,59.03
2023-02-18T07:36:20.269Z,59.80
2023-02-18T07:38:48.193Z,62.17
2023-02-18T07:41:21.439Z,65.17
2023-02-18T07:43:51.478Z,62.75
2023-02-18T07:46:20.532Z,64.22
2023-02-18T07:48:47.935Z,63.98
2023-02-18T07:51:17.306Z,64.72
2023-02-18T07:53:45.192Z,67.97
2023-02-18T07:56:13.037Z,66.62
2023-02-18T07:58:40.634Z,69.45
2023-02-18T08:01:10.703Z,64.67
2023-02-18T08:03:38.978Z,68.02
2023-02-18T08:06:08.286Z,66.28
2023-02-18T08:08:37.273Z,65.60
2023-02-18T08:11:17.076Z,62.65
2023-02-18T08:13:36.404Z,67.53
2023-02-18T08:16:03.965Z,63.85
2023-02-18T08:18:32.034Z,64.92
2023-02-18T08:21:00.055Z,65.10
2023-02-18T08:23:28.388Z,65.47
2023-02-18T08:25:55.940Z,68.60
2023-02-18T08:28:26.063Z,67.58
2023-02-18T08:30:56.406Z,67.37
2023-02-18T08:33:24.621Z,70.03
2023-02-18T08:35:53.708Z,66.67
2023-02-18T08:38:43.073Z,70.15
2023-02-18T08:41:11.167Z,66.53
2023-02-18T08:43:42.956Z,81.78
2023-02-18T08:46:15.869Z,79.90
2023-02-18T08:48:41.523Z,67.05
2023-02-18T08:51:19.358Z,67.60
2023-02-18T08:53:47.943Z,66.45
2023-02-18T08:56:17.712Z,67.78
2023-02-18T08:58:45.936Z,66.55
2023-02-18T09:01:14.335Z,65.62
2023-02-18T09:03:42.509Z,66.67
2023-02-18T09:06:10.806Z,63.85
2023-02-18T09:08:38.930Z,68.42
2023-02-18T09:11:07.024Z,66.67
2023-02-18T09:13:35.259Z,68.85
2023-02-18T09:16:06.986Z,68.00
2023-02-18T09:18:36.469Z,70.80
2023-02-18T09:21:07.523Z,69.35
2023-02-18T09:23:36.398Z,68.22
2023-02-18T09:26:07.983Z,69.53
2023-02-18T09:28:37.261Z,69.03
2023-02-18T09:31:14.720Z,68.72
2023-02-18T09:33:45.981Z,67.92
2023-02-18T09:36:15.054Z,70.08
2023-02-18T09:38:43.096Z,71.87
2023-02-18T09:41:32.968Z,74.85
2023-02-18T09:44:04.872Z,71.97
2023-02-18T09:46:44.514Z,73.28
2023-02-18T09:49:18.860Z,74.30
2023-02-18T09:51:47.296Z,75.42
2023-02-18T09:54:20.446Z,76.62
2023-02-18T09:56:49.809Z,77.75
2023-02-18T09:59:23.698Z,78.25
2023-02-18T10:01:55.025Z,73.83
2023-02-18T10:04:32.560Z,79.77
2023-02-18T10:07:04.069Z,79.10
2023-02-18T10:09:42.045Z,76.07
2023-02-18T10:12:15.529Z,76.95
2023-02-18T10:14:59.368Z,79.97
2023-02-18T10:17:30.859Z,79.72
2023-02-18T10:19:59.485Z,79.27
2023-02-18T10:22:28.780Z,79.55
2023-02-18T10:24:59.684Z,81.02
2023-02-18T10:27:30.827Z,79.15
2023-02-18T10:30:34.721Z,81.32
2023-02-18T10:33:23.132Z,81.22
2023-02-18T10:35:55.216Z,83.58
2023-02-18T10:38:48.513Z,84.40
2023-02-18T10:41:29.140Z,84.10
2023-02-18T10:44:03.753Z,84.70
2023-02-18T10:47:00.138Z,82.45
2023-02-18T10:50:02.101Z,83.07
2023-02-18T10:52:36.532Z,86.45
2023-02-18T10:57:34.088Z,84.32
2023-02-18T11:00:18.594Z,82.47
2023-02-18T11:02:47.659Z,85.25
2023-02-18T11:05:28.801Z,85.45
2023-02-18T11:07:58.801Z,86.45
2023-02-18T11:10:36.092Z,81.12
2023-02-18T11:13:10.823Z,82.75
2023-02-18T11:16:00.911Z,83.22
2023-02-18T11:18:42.831Z,97.67
2023-02-18T11:21:32.628Z,86.75
2023-02-18T11:24:10.314Z,86.17
2023-02-18T11:26:41.195Z,88.50
2023-02-18T11:29:28.167Z,90.22
2023-02-18T11:31:57.997Z,89.80
2023-02-18T11:34:31.799Z,94.00
2023-02-18T11:37:11.899Z,91.37
2023-02-18T11:39:46.471Z,92.95
2023-02-18T11:42:18.349Z,92.35
2023-02-18T11:44:58.564Z,94.13
2023-02-18T11:47:37.869Z,92.65
2023-02-18T11:50:12.253Z,95.25
2023-02-18T11:52:43.450Z,97.12
2023-02-18T11:57:50.745Z,93.25
2023-02-18T12:00:25.178Z,92.37
2023-02-18T12:02:55.321Z,100.65
2023-02-18T12:05:28.083Z,98.03
2023-02-18T12:08:06.230Z,97.02
2023-02-18T12:10:55.856Z,99.25
2023-02-18T12:13:42.254Z,100.75
2023-02-18T12:16:29.563Z,100.60
2023-02-18T12:19:36.718Z,99.90
2023-02-18T12:22:15.256Z,99.17
2023-02-18T12:25:07.407Z,102.22
2023-02-18T12:27:58.920Z,99.10
2023-02-18T12:30:46.658Z,101.20
2023-02-18T12:33:23.988Z,106.32
2023-02-18T12:36:15.573Z,101.07
2023-02-18T12:38:52.804Z,98.87
2023-02-18T12:41:30.579Z,97.30
2023-02-18T12:44:11.187Z,98.20
2023-02-18T12:46:48.422Z,99.05
2023-02-18T12:49:28.882Z,100.80
2023-02-18T12:52:18.692Z,101.87
2023-02-18T12:55:08.826Z,98.00
2023-02-18T12:57:59.012Z,98.58
2023-02-18T13:00:43.294Z,98.92
2023-02-18T13:03:40.246Z,95.55
2023-02-18T13:06:30.164Z,97.37
2023-02-18T13:09:18.781Z,95.75
2023-02-18T13:12:09.992Z,95.45
2023-02-18T13:14:51.979Z,92.92
2023-02-18T13:17:21.962Z,94.22
2023-02-18T13:20:03.033Z,91.60
2023-02-18T13:22:32.366Z,93.00
2023-02-18T13:25:01.611Z,92.47
2023-02-18T13:27:39.073Z,92.72
2023-02-18T13:30:13.267Z,92.47
2023-02-18T13:33:01.947Z,92.80
2023-02-18T13:35:42.886Z,88.30
2023-02-18T13:38:26.720Z,93.25
2023-02-18T13:40:57.504Z,88.42
2023-02-18T13:43:32.235Z,89.65
2023-02-18T13:48:52.737Z,89.28
2023-02-18T13:51:36.622Z,92.72
2023-02-18T13:54:20.949Z,89.70
2023-02-18T13:57:04.224Z,89.03
2023-02-18T13:59:41.552Z,89.47
2023-02-18T14:02:22.308Z,96.00
2023-02-18T14:04:53.305Z,93.33
2023-02-18T14:07:36.707Z,89.85
2023-02-18T14:10:08.006Z,90.95
2023-02-18T14:12:41.016Z,89.47
2023-02-18T14:15:24.496Z,88.58
2023-02-18T14:18:17.616Z,86.00
2023-02-18T14:20:50.298Z,84.92
2023-02-18T14:23:22.225Z,85.70
2023-02-18T14:25:53.081Z,90.53
2023-02-18T14:28:39.557Z,83.92
2023-02-18T14:31:14.578Z,82.10
2023-02-18T14:34:03.276Z,82.75
2023-02-18T14:36:44.231Z,81.15
2023-02-18T14:39:37.088Z,79.92
2023-02-18T14:42:20.115Z,82.75
2023-02-18T14:45:10.340Z,83.10
2023-02-18T14:51:03.632Z,83.52
2023-02-18T14:53:31.414Z,86.15
2023-02-18T14:56:02.663Z,85.10
2023-02-18T14:58:34.459Z,84.00
2023-02-18T15:01:22.704Z,83.25
2023-02-18T15:03:53.096Z,79.00
2023-02-18T15:06:33.794Z,78.72
2023-02-18T15:09:04.687Z,79.22
2023-02-18T15:11:39.774Z,91.45
2023-02-18T15:14:19.568Z,84.77
2023-02-18T15:16:49.323Z,82.67
2023-02-18T15:19:20.093Z,79.55
2023-02-18T15:22:09.753Z,81.57
2023-02-18T15:24:38.364Z,79.62
2023-02-18T15:27:13.143Z,79.15
2023-02-18T15:29:41.453Z,80.38
2023-02-18T15:32:13.438Z,77.45
2023-02-18T15:34:42.842Z,74.95
2023-02-18T15:37:14.182Z,78.50
2023-02-18T15:39:43.811Z,78.47
2023-02-18T15:42:21.398Z,73.85
2023-02-18T15:44:51.576Z,78.28
2023-02-18T15:47:21.509Z,75.00
2023-02-18T15:49:54.179Z,73.50
2023-02-18T15:52:28.225Z,78.15
2023-02-18T15:54:59.274Z,76.00
2023-02-18T15:57:30.041Z,74.58
2023-02-18T16:00:05.199Z,76.35
2023-02-18T16:02:34.700Z,75.28
2023-02-18T16:05:05.238Z,77.30
2023-02-18T16:07:39.051Z,78.75
2023-02-18T16:10:16.110Z,82.42
2023-02-18T16:12:48.786Z,79.45
2023-02-18T16:15:20.351Z,80.42
2023-02-18T16:17:48.257Z,79.70
2023-02-18T16:20:34.324Z,79.42
2023-02-18T16:23:12.081Z,79.15
2023-02-18T16:25:43.808Z,79.10
2023-02-18T16:28:30.003Z,82.85
2023-02-18T16:30:58.948Z,81.17
2023-02-18T16:33:26.767Z,80.55
2023-02-18T16:35:56.435Z,78.22
2023-02-18T16:38:26.314Z,76.75
2023-02-18T16:40:55.306Z,79.62
2023-02-18T16:43:25.208Z,84.07
2023-02-18T16:45:56.480Z,84.25
2023-02-18T16:48:43.640Z,83.27
2023-02-18T16:51:15.744Z,84.20
2023-02-18T16:53:43.354Z,80.05
2023-02-18T16:56:18.076Z,86.97
2023-02-18T16:58:46.065Z,85.83
2023-02-18T17:01:17.656Z,84.32
2023-02-18T17:03:47.221Z,85.87
2023-02-18T17:06:15.237Z,90.70
2023-02-18T17:08:43.505Z,96.40
2023-02-18T17:11:18.197Z,93.12
2023-02-18T17:13:46.300Z,88.12
2023-02-18T17:16:13.967Z,85.92
2023-02-18T17:18:42.430Z,89.00
2023-02-18T17:21:13.340Z,91.92
2023-02-18T17:23:42.350Z,90.10
2023-02-18T17:26:16.568Z,91.53
2023-02-18T17:28:44.830Z,95.45
2023-02-18T17:31:31.840Z,97.72
2023-02-18T17:34:05.729Z,95.15
2023-02-18T17:36:34.623Z,99.83
2023-02-18T17:39:04.961Z,101.38
2023-02-18T17:41:35.587Z,100.53
2023-02-18T17:44:07.932Z,92.72
2023-02-18T17:46:36.304Z,93.25
2023-02-18T17:49:24.328Z,89.25
2023-02-18T17:51:53.194Z,87.37
2023-02-18T17:54:23.031Z,88.65
2023-02-18T17:56:56.733Z,88.12
2023-02-18T17:59:24.476Z,87.75
2023-02-18T18:01:52.528Z,85.30
2023-02-18T18:04:20.890Z,89.95
2023-02-18T18:06:50.336Z,86.08
2023-02-18T18:09:18.427Z,85.28
2023-02-18T18:11:46.503Z,85.53
2023-02-18T18:14:15.660Z,84.92
2023-02-18T18:16:43.729Z,84.10
2023-02-18T18:19:11.517Z,85.03
2023-02-18T18:21:39.572Z,85.50
2023-02-18T18:24:07.530Z,85.83
2023-02-18T18:26:35.591Z,84.52
2023-02-18T18:29:03.296Z,83.40
2023-02-18T18:31:32.490Z,82.40
2023-02-18T18:34:00.492Z,86.00
2023-02-18T18:36:28.631Z,85.42
2023-02-18T18:38:55.748Z,86.87
2023-02-18T18:41:23.908Z,88.70
2023-02-18T18:44:05.326Z,86.78
2023-02-18T18:46:33.404Z,84.20
2023-02-18T18:49:03.225Z,86.72
2023-02-18T18:51:34.171Z,85.00
2023-02-18T18:54:01.645Z,85.15
2023-02-18T18:56:29.472Z,86.12
2023-02-18T18:58:58.284Z,84.90
2023-02-18T19:01:27.805Z,81.30
2023-02-18T19:03:55.589Z,81.92
2023-02-18T19:06:24.672Z,83.97
2023-02-18T19:08:52.123Z,82.27
2023-02-18T19:11:19.724Z,86.60
2023-02-18T19:13:47.731Z,81.95
2023-02-18T19:16:22.584Z,80.60
2023-02-18T19:18:50.304Z,79.87
2023-02-18T19:21:18.562Z,82.08
2023-02-18T19:23:46.740Z,82.65
2023-02-18T19:26:18.088Z,79.35
2023-02-18T19:28:46.885Z,83.03
2023-02-18T19:31:15.107Z,81.70
2023-02-18T19:33:44.772Z,80.00
2023-02-18T19:36:13.037Z,76.90
2023-02-18T19:38:41.049Z,78.30
2023-02-18T19:41:14.936Z,78.02
2023-02-18T19:43:44.479Z,79.55
2023-02-18T19:46:14.528Z,77.92
2023-02-18T19:48:43.125Z,77.65
2023-02-18T19:51:10.918Z,73.50
2023-02-18T19:53:38.660Z,75.08
2023-02-18T19:56:08.318Z,74.42
2023-02-18T19:58:37.464Z,72.30
2023-02-18T20:01:07.909Z,72.25
2023-02-18T20:03:35.972Z,74.07
2023-02-18T20:06:04.671Z,72.32
2023-02-18T20:08:38.145Z,71.95
2023-02-18T20:11:06.172Z,73.12
2023-02-18T20:13:33.799Z,71.62
2023-02-18T20:16:04.393Z,74.42
2023-02-18T20:18:32.451Z,75.30
2023-02-18T20:21:00.103Z,73.45
2023-02-18T20:23:28.040Z,76.95
2023-02-18T20:25:55.975Z,77.67
2023-02-18T20:28:23.957Z,77.22
2023-02-18T20:30:52.122Z,74.30
2023-02-18T20:33:20.203Z,76.37
2023-02-18T20:35:54.495Z,74.35
2023-02-18T20:38:22.079Z,75.97
2023-02-18T20:40:50.546Z,75.75
2023-02-18T20:43:18.236Z,74.65
2023-02-18T20:45:45.927Z,74.17
2023-02-18T20:48:13.850Z,79.65
2023-02-18T20:50:41.813Z,76.67
2023-02-18T20:53:09.422Z,75.75
2023-02-18T20:55:37.293Z,77.17
2023-02-18T20:58:05.557Z,78.35
2023-02-18T21:00:33.775Z,82.05
2023-02-18T21:03:01.878Z,77.53
2023-02-18T21:05:29.899Z,80.17
2023-02-18T21:07:58.057Z,78.62
2023-02-18T21:10:26.485Z,79.53
2023-02-18T21:12:54.389Z,77.15
2023-02-18T21:15:22.938Z,78.57
2023-02-18T21:17:50.909Z,81.00
2023-02-18T21:20:19.280Z,76.72
2023-02-18T21:22:46.846Z,77.37
2023-02-18T21:25:16.156Z,77.92
2023-02-18T21:27:44.364Z,77.00
2023-02-18T21:30:12.836Z,78.35
2023-02-18T21:32:40.787Z,76.10
2023-02-18T21:35:09.308Z,82.90
2023-02-18T21:37:37.668Z,77.30
2023-02-18T21:40:06.352Z,78.15
2023-02-18T21:42:35.149Z,78.07
2023-02-18T21:45:03.371Z,81.10
2023-02-18T21:47:32.362Z,75.70
2023-02-18T21:50:00.126Z,79.47
2023-02-18T21:52:29.172Z,83.37
2023-02-18T21:55:01.216Z,83.22
2023-02-18T21:57:29.260Z,81.95
2023-02-18T21:59:57.653Z,82.33
2023-02-18T22:02:30.728Z,84.75
2023-02-18T22:05:01.946Z,86.20
2023-02-18T22:07:30.178Z,81.20
2023-02-18T22:09:57.812Z,88.82
2023-02-18T22:12:26.755Z,86.60
2023-02-18T22:14:54.399Z,81.75
2023-02-18T22:17:22.746Z,81.12
2023-02-18T22:19:50.131Z,84.95
2023-02-18T22:22:17.921Z,85.57
2023-02-18T22:24:45.671Z,86.28
2023-02-18T22:27:13.403Z,81.85
2023-02-18T22:29:41.363Z,82.05
2023-02-18T22:32:09.637Z,83.62
2023-02-18T22:34:37.813Z,82.22
2023-02-18T22:37:09.024Z,81.95
2023-02-18T22:39:37.126Z,80.10
2023-02-18T22:42:05.660Z,82.65
2023-02-18T22:44:33.433Z,81.32
2023-02-18T22:47:01.466Z,80.35
2023-02-18T22:49:29.905Z,81.17
2023-02-18T22:51:58.196Z,79.07
2023-02-18T22:54:26.625Z,85.57
2023-02-18T22:56:55.979Z,83.90
2023-02-18T22:59:24.281Z,81.53
2023-02-18T23:01:53.334Z,80.47
2023-02-18T23:04:22.503Z,80.55
2023-02-18T23:06:50.805Z,83.25
2023-02-18T23:09:21.811Z,78.52
2023-02-18T23:11:51.563Z,81.60
2023-02-18T23:14:20.608Z,81.53
2023-02-18T23:17:13.454Z,80.22
2023-02-18T23:19:46.662Z,76.07
2023-02-18T23:22:17.438Z,77.22
2023-02-18T23:24:47.279Z,78.28
2023-02-18T23:27:28.830Z,79.50
2023-02-18T23:29:57.240Z,78.87
2023-02-18T23:32:27.871Z,82.53
2023-02-18T23:34:58.506Z,79.07
2023-02-18T23:37:45.769Z,78.78
2023-02-18T23:40:15.094Z,80.85
2023-02-18T23:42:43.675Z,81.85
2023-02-18T23:45:11.802Z,84.07
2023-02-18T23:47:41.975Z,78.02
2023-02-18T23:50:14.026Z,80.47
2023-02-18T23:52:42.362Z,81.32
2023-02-18T23:55:11.232Z,81.10
2023-02-18T23:57:40.431Z,79.85
